Time;durP1;ratioP1;P1;durP2;ratioP2;P2;SDS_P1;SDS_P2;PMS_P1;PMS_P2;Temp;Humidity;BMP_temperature;BMP_pressure;BME280_temperature;BME280_humidity;BME280_pressure;Samples;Min_cycle;Max_cycle;Signal;HPM_P1;HPM_P2
2023/10/29 00:00:58;;;;;;;0.20;0.20;;;;;;;15.80;100.00;100139.19;4944146;28;20042;-91
2023/10/29 00:03:24;;;;;;;0.20;0.20;;;;;;;15.87;100.00;100127.97;4976045;28;20026;-91
2023/10/29 00:05:49;;;;;;;0.20;0.20;;;;;;;15.78;100.00;100117.16;4975631;28;20041;-92
2023/10/29 00:08:15;;;;;;;0.20;0.20;;;;;;;15.97;100.00;100135.59;4993807;28;20022;-91
2023/10/29 00:10:40;;;;;;;0.20;0.20;;;;;;;15.77;100.00;100123.19;4999338;28;20381;-92
2023/10/29 00:13:06;;;;;;;0.20;0.20;;;;;;;15.90;100.00;100149.63;4999634;28;20036;-92
2023/10/29 00:15:32;;;;;;;0.20;0.20;;;;;;;15.87;100.00;100147.59;4999385;28;20026;-91
2023/10/29 00:17:57;;;;;;;0.20;0.20;;;;;;;15.81;100.00;100147.19;4983018;28;20026;-92
2023/10/29 00:20:23;;;;;;;0.20;0.20;;;;;;;15.65;100.00;100138.38;4999479;28;20437;-91
2023/10/29 00:22:48;;;;;;;0.20;0.20;;;;;;;15.77;100.00;100154.84;4983155;28;20058;-92
2023/10/29 00:25:14;;;;;;;0.20;0.20;;;;;;;15.62;100.00;100127.94;4982980;28;20473;-90
2023/10/29 00:27:40;;;;;;;0.30;0.30;;;;;;;15.70;100.00;100147.19;4999085;28;20109;-93
2023/10/29 00:30:07;;;;;;;0.20;0.20;;;;;;;15.69;100.00;100137.19;4998934;28;20054;-94
2023/10/29 00:32:32;;;;;;;0.20;0.20;;;;;;;15.58;100.00;100104.69;4983071;28;20482;-93
2023/10/29 00:34:58;;;;;;;0.20;0.20;;;;;;;15.68;100.00;100152.41;4998859;28;20034;-92
2023/10/29 00:37:24;;;;;;;0.20;0.20;;;;;;;15.74;100.00;100150.00;4982806;28;20033;-92
2023/10/29 00:39:54;;;;;;;0.20;0.20;;;;;;;15.91;100.00;100154.03;4985269;28;20022;-93
2023/10/29 00:42:19;;;;;;;0.20;0.20;;;;;;;15.69;100.00;100144.78;4999103;28;20056;-92
2023/10/29 00:44:45;;;;;;;0.20;0.20;;;;;;;15.94;100.00;100144.81;4998654;28;20105;-91
2023/10/29 00:47:11;;;;;;;0.20;0.20;;;;;;;15.73;100.00;100128.78;4999028;28;20030;-91
2023/10/29 00:49:37;;;;;;;0.22;0.22;;;;;;;15.68;100.00;100146.81;4998493;28;20466;-92
2023/10/29 00:52:03;;;;;;;0.20;0.20;;;;;;;15.62;100.00;100156.78;4999096;28;20057;-91
2023/10/29 00:54:29;;;;;;;0.20;0.20;;;;;;;15.52;100.00;100159.56;5015440;28;20096;-91
2023/10/29 00:56:57;;;;;;;0.20;0.20;;;;;;;15.58;100.00;100157.97;4998999;28;20018;-92
2023/10/29 00:59:25;;;;;;;0.20;0.20;;;;;;;15.51;100.00;100155.97;4999481;28;20080;-92
2023/10/29 01:01:50;;;;;;;0.20;0.20;;;;;;;15.48;100.00;100159.53;4999522;28;20061;-90
2023/10/29 01:04:18;;;;;;;0.20;0.20;;;;;;;15.51;100.00;100155.97;5005303;28;20030;-90
2023/10/29 01:06:46;;;;;;;0.20;0.20;;;;;;;15.65;100.00;100163.63;5034138;28;20026;-92
2023/10/29 01:09:12;;;;;;;0.20;0.20;;;;;;;15.71;100.00;100160.03;5017189;28;20486;-92
2023/10/29 01:11:38;;;;;;;0.20;0.20;;;;;;;15.48;100.00;100119.50;5000132;28;20040;-92
2023/10/29 01:14:04;;;;;;;0.20;0.20;;;;;;;15.71;100.00;100164.81;4998522;28;20040;-91
2023/10/29 01:16:29;;;;;;;0.20;0.20;;;;;;;15.70;100.00;100152.81;4998341;28;20033;-91
2023/10/29 01:18:56;;;;;;;0.20;0.20;;;;;;;15.67;100.00;100145.19;5015876;28;20477;-92
2023/10/29 01:21:26;;;;;;;0.20;0.20;;;;;;;15.67;100.00;100145.19;4997411;28;20050;-92
2023/10/29 01:23:54;;;;;;;0.20;0.20;;;;;;;15.67;100.00;100152.81;4998437;28;20121;-90
2023/10/29 01:26:20;;;;;;;0.30;0.30;;;;;;;15.54;100.00;100148.75;4998539;28;20022;-92
2023/10/29 01:37:53;;;;;;;0.20;0.20;;;;;;;15.53;100.00;100156.34;5031580;22;20054;-92
2023/10/29 01:40:27;;;;;;;0.20;0.20;;;;;;;15.46;100.00;100147.94;4997534;28;20116;-91
2023/10/29 01:42:53;;;;;;;0.20;0.20;;;;;;;15.44;100.00;100141.91;5015371;28;20032;-92
2023/10/29 01:45:18;;;;;;;0.20;0.20;;;;;;;15.50;100.00;100150.72;5014054;28;20038;-90
2023/10/29 01:56:29;;;;;;;0.20;0.20;;;;;;;15.55;100.00;100162.34;5050102;22;20061;-90
2023/10/29 01:58:58;;;;;;;0.20;0.20;;;;;;;15.45;100.00;100158.34;5015528;28;20041;-89
2023/10/29 02:04:32;;;;;;;0.20;0.20;;;;;;;15.47;100.00;100149.53;5054574;22;20069;-89
2023/10/29 02:07:06;;;;;;;0.20;0.20;;;;;;;15.36;100.00;100141.09;4998978;28;20544;-92
2023/10/29 02:15:22;;;;;;;0.20;0.20;;;;;;;15.53;100.00;100152.75;5053556;23;20045;-92
2023/10/29 02:17:47;;;;;;;0.20;0.20;;;;;;;15.41;100.00;100145.50;4965355;28;20042;-91
2023/10/29 02:20:13;;;;;;;0.20;0.20;;;;;;;15.33;100.00;100133.47;4997050;28;20489;-92
2023/10/29 02:22:40;;;;;;;0.20;0.20;;;;;;;15.13;100.00;100085.38;4964966;28;20030;-91
2023/10/29 02:25:08;;;;;;;0.20;0.20;;;;;;;15.57;100.00;100145.16;4997203;28;20026;-92
2023/10/29 02:30:22;;;;;;;0.20;0.20;;;;;;;15.46;100.00;100145.13;5018910;28;20037;-90
2023/10/29 02:35:29;;;;;;;0.20;0.20;;;;;;;15.37;100.00;100144.69;5072733;23;20417;-91
2023/10/29 02:37:56;;;;;;;0.20;0.20;;;;;;;15.39;100.00;100137.50;4997224;28;20040;-92
2023/10/29 02:40:31;;;;;;;0.20;0.20;;;;;;;15.34;100.00;100134.25;4996320;28;20448;-91
2023/10/29 02:42:57;;;;;;;0.20;0.20;;;;;;;15.25;100.00;100126.25;5014134;28;20030;-92
2023/10/29 02:45:22;;;;;;;0.20;0.20;;;;;;;15.39;100.00;100133.88;4996698;28;20041;-91
2023/10/29 02:48:15;;;;;;;0.20;0.20;;;;;;;15.19;100.00;100119.44;4997022;28;20029;-90
2023/10/29 03:04:12;;;;;;;0.20;0.20;;;;;;;15.38;100.00;100146.28;5060329;23;20050;-92
2023/10/29 03:06:41;;;;;;;0.20;0.20;;;;;;;15.38;100.00;100141.50;5013446;28;20029;-92
2023/10/29 03:09:07;;;;;;;0.20;0.20;;;;;;;15.39;100.00;100136.69;5012256;28;20049;-92
2023/10/29 03:11:32;;;;;;;0.20;0.20;;;;;;;15.28;100.00;100119.84;4995805;28;20029;-92
2023/10/29 03:13:59;;;;;;;0.20;0.20;;;;;;;15.37;100.00;100137.09;4996072;28;20038;-91
2023/10/29 03:16:29;;;;;;;0.20;0.20;;;;;;;15.32;100.00;100142.28;4982027;28;20100;-89
2023/10/29 03:24:33;;;;;;;0.30;0.30;;;;;;;15.44;100.00;100150.31;5030260;22;20065;-92
2023/10/29 03:26:59;;;;;;;0.20;0.20;;;;;;;15.41;100.00;100148.31;5012006;28;20044;-91
2023/10/29 03:29:24;;;;;;;0.20;0.20;;;;;;;15.32;100.00;100125.47;4996238;28;20034;-91
2023/10/29 03:31:50;;;;;;;0.20;0.20;;;;;;;15.39;100.00;100139.47;5012425;28;20066;-91
2023/10/29 03:34:16;;;;;;;0.20;0.20;;;;;;;15.45;100.00;100151.94;5013428;28;20093;-92
2023/10/29 03:36:41;;;;;;;0.20;0.20;;;;;;;15.44;100.00;100150.31;4995714;28;20025;-91
2023/10/29 03:39:07;;;;;;;0.20;0.20;;;;;;;15.30;100.00;100139.06;5013259;28;20104;-91
2023/10/29 03:41:36;;;;;;;0.30;0.30;;;;;;;15.28;100.00;100169.50;4995765;28;20112;-90
2023/10/29 03:44:01;;;;;;;0.20;0.20;;;;;;;15.28;100.00;100170.28;4995573;28;20034;-91
2023/10/29 03:46:28;;;;;;;0.20;0.20;;;;;;;15.15;100.00;100155.84;5012713;28;20509;-92
2023/10/29 03:48:54;;;;;;;0.20;0.20;;;;;;;15.05;100.00;100156.59;4995042;28;20052;-92
2023/10/29 03:51:20;;;;;;;0.20;0.20;;;;;;;15.26;100.00;100160.69;4995207;28;20022;-92
2023/10/29 03:53:46;;;;;;;0.20;0.20;;;;;;;15.35;100.00;100164.72;4995349;28;20113;-92
2023/10/29 03:56:12;;;;;;;0.20;0.20;;;;;;;15.25;100.00;100150.69;4995325;28;20060;-93
2023/10/29 03:58:38;;;;;;;0.20;0.20;;;;;;;15.37;100.00;100176.34;4995285;28;20030;-92
2023/10/29 04:01:05;;;;;;;0.20;0.20;;;;;;;15.24;100.00;100151.88;4995521;28;20507;-91
2023/10/29 04:06:28;;;;;;;0.20;0.20;;;;;;;15.34;100.00;100151.09;5053777;23;20069;-89
2023/10/29 04:08:54;;;;;;;0.20;0.20;;;;;;;15.48;100.00;100181.97;5032285;28;20025;-92
2023/10/29 04:11:20;;;;;;;0.20;0.20;;;;;;;15.49;100.00;100180.78;5015043;28;20030;-92
2023/10/29 04:13:46;;;;;;;0.20;0.20;;;;;;;15.43;100.00;100166.34;5015220;28;20057;-92
2023/10/29 04:21:51;;;;;;;0.20;0.20;;;;;;;15.02;100.00;100131.34;5064287;23;20409;-90
2023/10/29 04:24:20;;;;;;;0.20;0.20;;;;;;;15.35;100.00;100186.34;4995770;28;20034;-90
2023/10/29 04:26:50;;;;;;;0.30;0.30;;;;;;;15.33;100.00;100171.91;4996040;28;20470;-89
2023/10/29 04:29:16;;;;;;;0.20;0.20;;;;;;;15.43;100.00;100185.16;4995590;28;20053;-89
2023/10/29 04:31:41;;;;;;;0.20;0.20;;;;;;;15.42;100.00;100191.97;4979372;28;20133;-91
2023/10/29 04:34:07;;;;;;;0.20;0.20;;;;;;;15.38;100.00;100177.94;5011343;28;20113;-92
2023/10/29 04:36:37;;;;;;;0.30;0.30;;;;;;;15.42;100.00;100180.75;4978739;28;20054;-92
2023/10/29 04:39:02;;;;;;;0.20;0.20;;;;;;;15.40;100.00;100183.97;5011749;28;20497;-91
2023/10/29 04:41:29;;;;;;;0.20;0.20;;;;;;;15.49;100.00;100179.97;4978660;28;20030;-92
2023/10/29 04:43:54;;;;;;;0.20;0.20;;;;;;;15.40;100.00;100177.56;4992848;28;20498;-92
2023/10/29 04:46:20;;;;;;;0.28;0.28;;;;;;;15.41;100.00;100170.75;4974885;28;20060;-92
2023/10/29 04:48:45;;;;;;;0.20;0.20;;;;;;;15.34;100.00;100167.91;4991790;28;20030;-92
2023/10/29 04:51:11;;;;;;;0.20;0.20;;;;;;;15.37;100.00;100178.34;4975177;28;20035;-91
2023/10/29 04:53:37;;;;;;;0.20;0.20;;;;;;;15.49;100.00;100177.97;4992967;28;20034;-91
2023/10/29 04:56:03;;;;;;;0.30;0.30;;;;;;;15.43;100.00;100177.56;4976816;28;20054;-93
2023/10/29 04:58:29;;;;;;;0.20;0.20;;;;;;;15.34;100.00;100163.13;4978959;28;20042;-92
2023/10/29 05:00:56;;;;;;;0.25;0.25;;;;;;;15.41;100.00;100167.94;4979081;28;20109;-91
2023/10/29 05:03:22;;;;;;;0.20;0.20;;;;;;;15.42;100.00;100183.56;4978807;28;20475;-91
2023/10/29 05:05:47;;;;;;;0.20;0.20;;;;;;;15.30;100.00;100158.69;4978916;28;20145;-91
2023/10/29 05:08:13;;;;;;;0.20;0.20;;;;;;;15.54;100.00;100183.19;4978826;28;20036;-91
2023/10/29 05:10:41;;;;;;;0.20;0.20;;;;;;;15.53;100.00;100181.59;4996138;28;20034;-91
2023/10/29 05:13:06;;;;;;;0.20;0.20;;;;;;;15.45;100.00;100171.56;4996215;28;20505;-91
2023/10/29 05:15:32;;;;;;;0.20;0.20;;;;;;;15.61;100.00;100182.44;4978452;28;20165;-92
2023/10/29 05:17:57;;;;;;;0.30;0.30;;;;;;;15.53;100.00;100169.56;4978744;28;20027;-91
2023/10/29 05:20:22;;;;;;;0.20;0.20;;;;;;;15.57;100.00;100188.00;4978967;28;20054;-91
2023/10/29 05:22:48;;;;;;;0.20;0.20;;;;;;;15.35;100.00;100150.72;4996003;28;20034;-91
2023/10/29 05:25:13;;;;;;;0.20;0.20;;;;;;;15.47;100.00;100169.16;4979385;28;20066;-91
2023/10/29 05:27:39;;;;;;;0.20;0.20;;;;;;;15.49;100.00;100189.19;4999002;28;20038;-91
2023/10/29 05:30:05;;;;;;;0.20;0.20;;;;;;;15.47;100.00;100177.56;4991657;28;20036;-92
2023/10/29 05:32:32;;;;;;;0.28;0.28;;;;;;;15.50;100.00;100175.97;4990311;28;20030;-91
2023/10/29 05:34:57;;;;;;;0.20;0.20;;;;;;;15.54;100.00;100182.38;4981541;28;20549;-91
2023/10/29 05:37:23;;;;;;;0.20;0.20;;;;;;;15.44;100.00;100184.75;4978235;28;20068;-92
2023/10/29 05:39:49;;;;;;;0.20;0.20;;;;;;;15.51;100.00;100184.00;4991207;28;20488;-93
2023/10/29 05:42:14;;;;;;;0.20;0.20;;;;;;;15.75;100.00;100184.47;4981813;28;20557;-91
2023/10/29 05:44:40;;;;;;;0.20;0.20;;;;;;;16.12;100.00;100190.53;4997291;28;20034;-91
2023/10/29 05:47:05;;;;;;;0.30;0.30;;;;;;;16.59;100.00;100207.38;5015247;28;20029;-91
2023/10/29 05:49:30;;;;;;;0.20;0.20;;;;;;;16.93;100.00;100193.66;5014630;28;20033;-91
2023/10/29 05:51:56;;;;;;;0.20;0.20;;;;;;;17.33;100.00;100185.91;4997028;28;20169;-90
2023/10/29 05:54:21;;;;;;;0.20;0.20;;;;;;;17.67;100.00;100178.47;5014616;28;20029;-91
2023/10/29 05:56:46;;;;;;;0.20;0.20;;;;;;;18.25;100.00;100190.16;4996847;28;20478;-91
2023/10/29 05:59:13;;;;;;;0.20;0.20;;;;;;;18.71;99.81;100205.88;5014627;28;20039;-90
2023/10/29 06:01:38;;;;;;;0.20;0.20;;;;;;;19.00;97.92;100212.78;4997189;28;20117;-90
2023/10/29 06:04:05;;;;;;;0.20;0.20;;;;;;;19.27;94.44;100195.97;4997182;28;20026;-91
2023/10/29 06:06:30;;;;;;;0.20;0.20;;;;;;;19.65;91.99;100215.66;5014193;28;20030;-90
2023/10/29 06:08:56;;;;;;;0.20;0.20;;;;;;;19.97;90.22;100215.19;4996853;28;20033;-90
2023/10/29 06:11:21;;;;;;;0.20;0.20;;;;;;;20.65;85.16;100225.41;4996449;28;20104;-90
2023/10/29 06:13:47;;;;;;;0.20;0.20;;;;;;;20.90;82.94;100222.94;4996889;28;20109;-90
2023/10/29 06:16:12;;;;;;;0.20;0.20;;;;;;;21.19;81.12;100242.97;5014154;28;20034;-90
2023/10/29 06:18:38;;;;;;;0.20;0.20;;;;;;;21.23;80.80;100248.59;5014210;28;20030;-90
2023/10/29 06:21:03;;;;;;;0.20;0.20;;;;;;;21.68;79.38;100240.41;5013446;28;20041;-89
2023/10/29 06:23:29;;;;;;;0.20;0.20;;;;;;;21.96;75.88;100236.13;5013912;28;20022;-89
2023/10/29 06:25:54;;;;;;;0.20;0.20;;;;;;;22.61;72.25;100249.59;4996308;28;20025;-90
2023/10/29 06:28:19;;;;;;;0.20;0.20;;;;;;;22.54;72.41;100248.97;4995988;28;20021;-89
2023/10/29 06:30:45;;;;;;;0.20;0.20;;;;;;;22.91;69.34;100268.28;5014349;28;20177;-88
2023/10/29 06:33:10;;;;;;;0.20;0.20;;;;;;;23.16;68.88;100264.75;4997145;28;20036;-89
2023/10/29 06:35:36;;;;;;;0.20;0.20;;;;;;;23.31;66.57;100259.50;4996911;28;20022;-89
2023/10/29 06:38:01;;;;;;;0.20;0.20;;;;;;;23.56;64.37;100263.69;5013402;28;20038;-89
2023/10/29 06:40:26;;;;;;;0.20;0.20;;;;;;;23.77;63.67;100260.22;4996127;28;20033;-88
2023/10/29 06:42:52;;;;;;;0.20;0.20;;;;;;;24.39;60.49;100282.69;4996081;28;20052;-88
2023/10/29 06:45:17;;;;;;;0.20;0.20;;;;;;;24.41;60.61;100268.81;4995863;28;20544;-89
2023/10/29 06:47:43;;;;;;;0.20;0.20;;;;;;;24.54;58.63;100286.66;4995749;28;20118;-89
2023/10/29 06:50:08;;;;;;;0.20;0.20;;;;;;;25.42;53.07;100284.88;5013050;28;20186;-89
2023/10/29 06:52:34;;;;;;;0.20;0.20;;;;;;;24.66;56.70;100285.88;4996008;28;20417;-89
2023/10/29 06:54:59;;;;;;;0.20;0.20;;;;;;;25.24;55.71;100302.56;5013329;28;20049;-88
2023/10/29 06:57:24;;;;;;;0.20;0.20;;;;;;;24.62;57.93;100295.78;4995276;28;20037;-89
2023/10/29 06:59:50;;;;;;;0.20;0.20;;;;;;;24.87;56.99;100312.78;4995627;28;20057;-89
2023/10/29 07:02:16;;;;;;;0.17;0.17;;;;;;;25.04;55.16;100310.59;5012843;28;20053;-89
2023/10/29 07:04:42;;;;;;;0.20;0.20;;;;;;;24.90;53.36;100309.03;5012957;28;20017;-89
2023/10/29 07:07:07;;;;;;;0.20;0.20;;;;;;;25.51;52.54;100304.84;5012489;28;20109;-90
2023/10/29 07:09:33;;;;;;;0.20;0.20;;;;;;;25.20;51.20;100307.63;5012868;28;20037;-89
2023/10/29 07:11:58;;;;;;;0.20;0.20;;;;;;;26.34;47.26;100305.38;4995495;28;20022;-89
2023/10/29 07:14:24;;;;;;;0.20;0.20;;;;;;;25.68;49.31;100307.53;4995234;28;20090;-90
2023/10/29 07:16:49;;;;;;;0.20;0.20;;;;;;;26.30;46.88;100321.84;4995222;28;20038;-90
2023/10/29 07:19:16;;;;;;;0.10;0.10;;;;;;;26.28;46.76;100310.13;4994621;28;20025;-89
2023/10/29 07:21:42;;;;;;;0.20;0.20;;;;;;;25.90;47.25;100285.53;5012430;28;20034;-90
2023/10/29 07:24:08;;;;;;;0.20;0.20;;;;;;;26.10;48.49;100310.84;4995333;28;20366;-89
2023/10/29 07:26:34;;;;;;;0.20;0.20;;;;;;;25.18;51.54;100292.25;4994911;28;20121;-90
2023/10/29 07:29:03;;;;;;;0.10;0.10;;;;;;;26.09;49.86;100318.56;4995013;28;20134;-88
2023/10/29 07:31:30;;;;;;;0.20;0.20;;;;;;;26.34;49.12;100326.16;4989105;28;20041;-89
2023/10/29 07:33:55;;;;;;;0.15;0.15;;;;;;;25.94;48.78;100293.94;4995110;28;20441;-90
2023/10/29 07:36:22;;;;;;;0.20;0.20;;;;;;;25.91;48.91;100314.84;4995812;28;20148;-89
2023/10/29 07:38:47;;;;;;;0.20;0.20;;;;;;;26.32;46.83;100327.91;5012525;28;20420;-88
2023/10/29 07:41:20;;;;;;;0.20;0.20;;;;;;;26.94;45.71;100336.38;4995016;28;20021;-89
2023/10/29 07:43:46;;;;;;;0.20;0.20;;;;;;;26.34;47.38;100336.75;4994431;28;20401;-89
2023/10/29 07:46:13;;;;;;;0.20;0.20;;;;;;;25.90;49.65;100339.69;4995089;28;20046;-89
2023/10/29 07:48:40;;;;;;;0.20;0.20;;;;;;;25.96;47.98;100323.56;4994934;28;20042;-89
2023/10/29 07:51:05;;;;;;;0.20;0.20;;;;;;;26.81;45.69;100336.50;4994855;28;20233;-89
2023/10/29 07:53:30;;;;;;;0.20;0.20;;;;;;;25.11;48.89;100320.97;5012473;28;20041;-89
2023/10/29 07:56:13;;;;;;;0.20;0.20;;;;;;;26.07;47.53;100345.97;5012336;28;20049;-89
2023/10/29 07:58:39;;;;;;;0.20;0.20;;;;;;;26.00;47.94;100346.25;4994615;28;20026;-90
2023/10/29 08:01:16;;;;;;;0.20;0.20;;;;;;;25.72;48.33;100342.38;4995115;28;20450;-89
2023/10/29 08:03:43;;;;;;;0.20;0.20;;;;;;;25.52;49.29;100339.84;4994686;28;20030;-89
2023/10/29 08:06:09;;;;;;;0.20;0.20;;;;;;;25.05;49.39;100318.66;4994857;28;20398;-90
2023/10/29 08:08:35;;;;;;;0.20;0.20;;;;;;;24.50;50.44;100323.78;4991763;28;20033;-90
2023/10/29 08:11:01;;;;;;;0.20;0.20;;;;;;;25.04;50.58;100351.25;4975566;28;20023;-90
2023/10/29 08:13:26;;;;;;;0.20;0.20;;;;;;;25.27;50.65;100343.59;4993027;28;20035;-90
2023/10/29 08:15:51;;;;;;;0.20;0.20;;;;;;;25.02;51.19;100330.97;4975568;28;20030;-89
2023/10/29 08:18:18;;;;;;;0.20;0.20;;;;;;;24.94;51.46;100334.53;4992866;28;20027;-90
2023/10/29 08:20:44;;;;;;;0.20;0.20;;;;;;;25.15;51.23;100318.81;4975550;28;20137;-90
2023/10/29 08:23:10;;;;;;;0.20;0.20;;;;;;;24.39;54.39;100339.56;4993060;28;20041;-90
2023/10/29 08:25:36;;;;;;;0.20;0.20;;;;;;;25.13;53.10;100342.00;4975733;28;20117;-91
2023/10/29 08:28:01;;;;;;;0.10;0.10;;;;;;;23.94;57.20;100337.66;4975394;28;20057;-91
2023/10/29 08:30:27;;;;;;;0.20;0.20;;;;;;;24.75;55.69;100344.91;5010422;28;20091;-90
2023/10/29 08:32:52;;;;;;;0.20;0.20;;;;;;;25.32;53.46;100354.38;5036047;28;20036;-90
2023/10/29 08:35:17;;;;;;;0.20;0.20;;;;;;;24.52;56.33;100348.91;5018155;28;20039;-90
2023/10/29 08:37:43;;;;;;;0.13;0.13;;;;;;;25.21;53.10;100336.88;5018068;28;20043;-89
2023/10/29 08:40:09;;;;;;;0.20;0.20;;;;;;;24.67;54.26;100337.88;5020006;28;20026;-90
2023/10/29 08:42:34;;;;;;;0.20;0.20;;;;;;;24.87;55.96;100344.06;4998664;28;20094;-91
2023/10/29 08:45:00;;;;;;;0.20;0.20;;;;;;;24.88;54.21;100340.00;4998193;28;20026;-90
2023/10/29 08:47:26;;;;;;;0.20;0.20;;;;;;;25.28;54.25;100365.91;5015723;28;20022;-89
2023/10/29 08:49:52;;;;;;;0.20;0.20;;;;;;;25.41;53.50;100363.03;4998468;28;20037;-89
2023/10/29 08:52:18;;;;;;;0.20;0.20;;;;;;;24.67;55.43;100360.63;4998188;28;20061;-90
2023/10/29 08:54:44;;;;;;;0.20;0.20;;;;;;;24.88;54.82;100334.31;4997460;28;20516;-91
2023/10/29 08:57:10;;;;;;;0.20;0.20;;;;;;;24.56;55.85;100356.06;4998202;28;20040;-90
2023/10/29 08:59:35;;;;;;;0.20;0.20;;;;;;;24.86;55.27;100362.41;4997998;28;20466;-90
2023/10/29 09:02:01;;;;;;;0.20;0.20;;;;;;;24.54;55.65;100349.22;5015696;28;20098;-90
2023/10/29 09:04:26;;;;;;;0.20;0.20;;;;;;;24.93;56.01;100364.22;4998500;28;20474;-90
2023/10/29 09:06:52;;;;;;;0.20;0.20;;;;;;;24.14;57.94;100368.75;4997891;28;20025;-90
2023/10/29 09:09:17;;;;;;;0.20;0.20;;;;;;;24.40;57.84;100356.19;4998264;28;20504;-91
2023/10/29 09:11:44;;;;;;;0.20;0.20;;;;;;;24.72;56.68;100360.06;4997810;28;20458;-91
2023/10/29 09:14:13;;;;;;;0.20;0.20;;;;;;;24.37;57.97;100348.53;5015543;28;20041;-89
2023/10/29 09:16:44;;;;;;;0.20;0.20;;;;;;;25.33;55.26;100364.50;4998163;28;20053;-90
2023/10/29 09:19:09;;;;;;;0.20;0.20;;;;;;;25.25;55.50;100343.25;4998161;28;20502;-89
2023/10/29 09:21:35;;;;;;;0.20;0.20;;;;;;;25.41;55.68;100365.03;5015255;28;20050;-88
2023/10/29 09:24:00;;;;;;;0.10;0.10;;;;;;;25.19;55.63;100359.31;4997829;28;20030;-91
2023/10/29 09:26:25;;;;;;;0.20;0.20;;;;;;;25.54;55.29;100363.75;4997407;28;20041;-91
2023/10/29 09:28:51;;;;;;;0.20;0.20;;;;;;;26.22;53.83;100369.03;5014945;28;20264;-89
2023/10/29 09:31:17;;;;;;;0.20;0.20;;;;;;;26.83;50.96;100341.72;5015112;28;20022;-88
2023/10/29 09:33:44;;;;;;;0.20;0.20;;;;;;;27.26;49.42;100371.38;4997572;28;20029;-89
2023/10/29 09:36:10;;;;;;;0.10;0.10;;;;;;;27.11;49.53;100357.72;4981034;28;20240;-89
2023/10/29 09:38:35;;;;;;;0.20;0.20;;;;;;;26.64;50.54;100349.47;4997151;28;20066;-88
2023/10/29 09:41:02;;;;;;;0.20;0.20;;;;;;;26.85;49.83;100359.19;4996775;28;20029;-88
2023/10/29 09:43:37;;;;;;;0.20;0.20;;;;;;;26.25;50.56;100359.53;4997329;28;20022;-89
2023/10/29 09:46:05;;;;;;;0.20;0.20;;;;;;;26.73;48.56;100375.16;4997648;28;20101;-88
2023/10/29 09:48:33;;;;;;;0.20;0.20;;;;;;;26.10;50.50;100362.94;5015480;28;20289;-89
2023/10/29 09:51:00;;;;;;;0.20;0.20;;;;;;;27.01;48.39;100375.28;5004510;28;20068;-89
2023/10/29 09:53:27;;;;;;;0.20;0.20;;;;;;;26.47;50.19;100350.94;5028721;28;20030;-89
2023/10/29 09:55:54;;;;;;;0.10;0.10;;;;;;;26.91;49.73;100360.16;5007994;28;20125;-89
2023/10/29 09:58:22;;;;;;;0.20;0.20;;;;;;;26.91;49.34;100351.59;5014998;28;20022;-90
2023/10/29 10:00:49;;;;;;;0.20;0.20;;;;;;;26.36;50.65;100360.69;4996748;28;20441;-90
2023/10/29 10:03:15;;;;;;;0.20;0.20;;;;;;;26.59;49.29;100365.13;4997001;28;20026;-89
2023/10/29 10:05:42;;;;;;;0.20;0.20;;;;;;;26.15;49.91;100369.28;4996794;28;20092;-90
2023/10/29 10:08:09;;;;;;;0.20;0.20;;;;;;;25.67;50.25;100343.75;5013895;28;20129;-89
2023/10/29 10:10:38;;;;;;;0.20;0.20;;;;;;;25.07;52.70;100353.19;5014389;28;20058;-89
2023/10/29 10:13:04;;;;;;;0.20;0.20;;;;;;;25.60;50.75;100364.75;4996533;28;20026;-90
2023/10/29 10:15:30;;;;;;;0.20;0.20;;;;;;;25.84;50.13;100352.94;4996702;28;20057;-89
2023/10/29 10:18:01;;;;;;;0.20;0.20;;;;;;;25.65;49.98;100360.53;4997034;28;20033;-90
2023/10/29 10:20:28;;;;;;;0.20;0.20;;;;;;;26.66;47.87;100351.84;4996581;28;20197;-90
2023/10/29 10:23:08;;;;;;;0.20;0.20;;;;;;;27.06;46.54;100351.78;5013774;28;20060;-89
2023/10/29 10:25:34;;;;;;;0.10;0.10;;;;;;;27.02;46.72;100351.94;4996291;28;20042;-90
2023/10/29 10:28:02;;;;;;;0.20;0.20;;;;;;;26.18;48.30;100354.09;5013668;28;20030;-90
2023/10/29 10:30:30;;;;;;;0.20;0.20;;;;;;;26.73;47.91;100345.81;5017855;28;20053;-89
2023/10/29 10:33:13;;;;;;;0.20;0.20;;;;;;;27.01;47.17;100350.34;4996406;28;20022;-89
2023/10/29 10:35:46;;;;;;;0.20;0.20;;;;;;;27.69;45.29;100336.75;4997035;28;20037;-90
2023/10/29 10:38:12;;;;;;;0.10;0.10;;;;;;;26.63;46.07;100348.66;4996949;28;20385;-89
2023/10/29 10:40:38;;;;;;;0.20;0.20;;;;;;;26.48;47.09;100330.53;4996125;28;20068;-91
2023/10/29 10:43:08;;;;;;;0.20;0.20;;;;;;;26.79;45.93;100329.66;4995240;28;20022;-90
2023/10/29 10:45:36;;;;;;;0.20;0.20;;;;;;;26.83;46.22;100347.44;5013169;28;20038;-90
2023/10/29 10:48:06;;;;;;;0.20;0.20;;;;;;;26.78;46.04;100319.50;4995916;28;20034;-89
2023/10/29 10:50:33;;;;;;;0.15;0.15;;;;;;;26.20;46.57;100331.63;5014176;28;20037;-89
2023/10/29 10:52:58;;;;;;;0.15;0.15;;;;;;;27.06;45.55;100335.47;4994506;28;20034;-89
2023/10/29 10:55:25;;;;;;;0.20;0.20;;;;;;;27.27;45.65;100338.66;4995701;28;20410;-89
2023/10/29 10:57:52;;;;;;;0.15;0.15;;;;;;;26.26;47.18;100324.03;5012572;28;20018;-89
2023/10/29 11:00:19;;;;;;;0.20;0.20;;;;;;;26.57;47.79;100319.13;4995537;28;20033;-89
2023/10/29 11:02:46;;;;;;;0.20;0.20;;;;;;;25.85;48.60;100323.97;5013185;28;20028;-89
2023/10/29 11:05:13;;;;;;;0.20;0.20;;;;;;;26.02;49.03;100332.31;4994978;28;20579;-89
2023/10/29 11:07:44;;;;;;;0.20;0.20;;;;;;;26.37;48.01;100324.44;5012172;28;20212;-89
2023/10/29 11:10:13;;;;;;;0.20;0.20;;;;;;;26.99;47.27;100317.81;4995090;28;20053;-90
2023/10/29 11:12:39;;;;;;;0.20;0.20;;;;;;;27.06;47.33;100324.03;4994924;28;20018;-90
2023/10/29 11:15:14;;;;;;;0.20;0.20;;;;;;;26.76;47.75;100322.84;4995202;28;20082;-90
2023/10/29 11:17:55;;;;;;;0.20;0.20;;;;;;;26.83;46.77;100321.75;5012578;28;20022;-89
2023/10/29 11:20:41;;;;;;;0.20;0.20;;;;;;;25.96;48.95;100322.78;5012797;28;20042;-90
2023/10/29 11:23:08;;;;;;;0.20;0.20;;;;;;;25.72;49.13;100319.56;4995147;28;20105;-90
2023/10/29 11:25:34;;;;;;;0.20;0.20;;;;;;;26.20;48.26;100321.00;5012484;28;20042;-89
2023/10/29 11:28:01;;;;;;;0.20;0.20;;;;;;;26.65;47.75;100316.78;4995397;28;20300;-89
2023/10/29 11:30:28;;;;;;;0.13;0.13;;;;;;;26.57;47.53;100315.50;4995295;28;20036;-90
2023/10/29 11:33:05;;;;;;;0.20;0.20;;;;;;;26.90;46.30;100315.75;5013077;28;20434;-90
2023/10/29 11:35:31;;;;;;;0.20;0.20;;;;;;;26.54;46.38;100311.53;4995002;28;20099;-90
2023/10/29 11:37:57;;;;;;;0.20;0.20;;;;;;;27.10;46.12;100307.56;4994929;28;20050;-89
2023/10/29 11:40:22;;;;;;;0.20;0.20;;;;;;;26.28;47.13;100312.97;5012800;28;20033;-89
2023/10/29 11:42:48;;;;;;;0.15;0.15;;;;;;;26.46;47.02;100295.94;4995014;28;20022;-90
2023/10/29 11:45:28;;;;;;;0.20;0.20;;;;;;;26.30;46.62;100296.97;4995100;28;20124;-90
2023/10/29 11:48:06;;;;;;;0.20;0.20;;;;;;;26.69;45.87;100299.53;4995161;28;20036;-89
2023/10/29 11:50:34;;;;;;;0.20;0.20;;;;;;;26.04;48.00;100299.22;4995340;28;20067;-90
2023/10/29 11:52:59;;;;;;;0.20;0.20;;;;;;;26.22;47.51;100283.47;5012101;28;20045;-90
2023/10/29 11:55:29;;;;;;;0.10;0.10;;;;;;;25.51;49.33;100292.66;5012295;28;20058;-90
2023/10/29 11:57:56;;;;;;;0.20;0.20;;;;;;;25.29;49.69;100281.25;4994800;28;20087;-90
2023/10/29 12:00:24;;;;;;;0.20;0.20;;;;;;;25.74;48.77;100274.31;5012176;28;20025;-90
2023/10/29 12:02:49;;;;;;;0.20;0.20;;;;;;;25.76;49.40;100291.78;5012727;28;20109;-90
2023/10/29 12:05:15;;;;;;;0.20;0.20;;;;;;;25.08;50.02;100271.44;4994619;28;20529;-90
2023/10/29 12:07:41;;;;;;;0.20;0.20;;;;;;;25.29;49.28;100286.97;4994648;28;20389;-91
2023/10/29 12:10:07;;;;;;;0.20;0.20;;;;;;;25.66;48.86;100285.19;4994773;28;20168;-92
2023/10/29 12:12:34;;;;;;;0.17;0.17;;;;;;;25.80;49.24;100281.81;4994738;28;20025;-92
2023/10/29 12:15:01;;;;;;;0.20;0.20;;;;;;;25.41;51.43;100279.59;4994617;28;20115;-89
2023/10/29 12:17:29;;;;;;;0.17;0.17;;;;;;;25.48;50.36;100265.91;5012458;28;20505;-89
2023/10/29 12:19:56;;;;;;;0.20;0.20;;;;;;;25.51;50.45;100269.88;5012355;28;20033;-89